Time;durP1;ratioP1;P1;durP2;ratioP2;P2;SDS_P1;SDS_P2;PMS_P1;PMS_P2;Temp;Humidity;BMP_temperature;BMP_pressure;BME280_temperature;BME280_humidity;BME280_pressure;Samples;Min_cycle;Max_cycle;Signal;HPM_P1;HPM_P2
2024/02/28 00:00:30;;;;;;;35.20;17.80;;;;;;;2.03;73.98;100661.98;109539;1252;69026;-75
2024/02/28 00:02:57;;;;;;;36.30;18.90;;;;;;;2.10;73.96;100665.56;109503;1254;71369;-75
2024/02/28 00:05:25;;;;;;;38.90;20.10;;;;;;;2.09;74.01;100667.77;108499;1255;59343;-76
2024/02/28 00:07:52;;;;;;;40.80;19.90;;;;;;;2.04;74.28;100664.55;108474;1254;59322;-75
2024/02/28 00:10:20;;;;;;;39.10;20.70;;;;;;;2.00;74.34;100664.27;108275;1258;73851;-75
2024/02/28 00:12:48;;;;;;;37.60;20.30;;;;;;;1.94;74.44;100667.23;108216;1254;69008;-76
2024/02/28 00:15:15;;;;;;;39.60;19.00;;;;;;;1.90;74.29;100670.11;108240;1253;72859;-76
2024/02/28 00:17:43;;;;;;;36.90;18.70;;;;;;;1.91;74.44;100664.42;109200;1256;59553;-77
2024/02/28 00:22:56;;;;;;;37.30;19.90;;;;;;;2.04;74.47;100666.30;105766;1293;600242;-76
2024/02/28 12:41:02;;;;;;;12.20;8.90;;;;;;;24.09;28.02;100574.59;102799;1297;600966;-79
2024/02/28 12:43:30;;;;;;;13.50;9.60;;;;;;;24.45;27.65;100572.77;104905;1267;59168;-79
2024/02/28 12:45:57;;;;;;;12.60;9.30;;;;;;;24.45;27.40;100572.44;105149;1268;62585;-78
2024/02/28 12:48:25;;;;;;;12.10;9.40;;;;;;;24.16;27.68;100575.29;105265;1268;74363;-77
2024/02/28 12:50:52;;;;;;;15.70;9.30;;;;;;;23.85;27.67;100572.29;106214;1258;72651;-79
2024/02/28 12:53:19;;;;;;;13.20;9.10;;;;;;;23.38;28.07;100570.23;106163;1257;73131;-76
2024/02/28 12:55:47;;;;;;;11.70;9.10;;;;;;;23.04;28.19;100571.61;105610;1257;226819;-79
2024/02/28 12:58:14;;;;;;;11.10;8.50;;;;;;;22.79;28.49;100566.81;106092;1254;59358;-79
2024/02/28 13:00:42;;;;;;;12.60;9.20;;;;;;;22.52;28.57;100559.58;107039;1257;72494;-78
2024/02/28 13:03:09;;;;;;;15.20;8.40;;;;;;;22.16;29.08;100556.47;106743;1260;68061;-80
2024/02/28 13:05:37;;;;;;;12.90;9.00;;;;;;;21.89;29.21;100551.38;107991;1257;73991;-77
2024/02/28 13:08:05;;;;;;;14.70;9.30;;;;;;;21.53;29.51;100551.76;106582;1259;60797;-78
2024/02/28 13:10:35;;;;;;;19.20;9.60;;;;;;;21.06;30.23;100552.91;105523;1254;60005;-79
2024/02/28 13:13:03;;;;;;;14.20;8.70;;;;;;;20.93;30.51;100549.13;105736;1257;75061;-78
2024/02/28 13:15:31;;;;;;;12.50;8.50;;;;;;;20.83;30.59;100555.63;105845;1257;71857;-79
2024/02/28 13:17:59;;;;;;;13.70;9.20;;;;;;;20.50;30.82;100553.14;105430;1257;73609;-80
2024/02/28 13:20:27;;;;;;;15.40;9.40;;;;;;;20.12;31.18;100548.22;105804;1260;59858;-75
2024/02/28 13:22:54;;;;;;;14.10;9.20;;;;;;;19.91;31.45;100546.16;105684;1256;62509;-75
2024/02/28 13:25:22;;;;;;;16.10;9.30;;;;;;;20.05;31.62;100542.39;108306;1255;73823;-81
2024/02/28 13:27:49;;;;;;;15.40;8.80;;;;;;;20.50;31.41;100547.69;108903;1255;70881;-80
2024/02/28 13:30:17;;;;;;;15.10;8.20;;;;;;;21.02;31.04;100541.17;107258;1257;73780;-80
2024/02/28 13:32:44;;;;;;;16.50;9.10;;;;;;;21.46;30.68;100541.63;106808;1258;61048;-82
2024/02/28 13:35:16;;;;;;;17.10;9.50;;;;;;;21.75;30.21;100548.50;106746;1256;60925;-79
2024/02/28 13:37:44;;;;;;;13.50;9.40;;;;;;;21.91;30.21;100543.06;106664;1260;74180;-81
2024/02/28 13:40:11;;;;;;;18.30;9.00;;;;;;;22.16;29.79;100544.26;106380;1264;68852;-81
2024/02/28 13:42:39;;;;;;;17.30;9.20;;;;;;;21.78;29.86;100546.22;106102;1257;74717;-80
2024/02/28 13:45:07;;;;;;;14.30;8.60;;;;;;;20.86;30.46;100548.43;106352;1257;60187;-80
2024/02/28 13:47:35;;;;;;;13.90;8.80;;;;;;;19.60;31.45;100547.72;106196;1257;59841;-80
2024/02/28 13:50:02;;;;;;;19.00;9.40;;;;;;;18.43;32.75;100541.84;106582;1258;75307;-81
2024/02/28 13:52:30;;;;;;;16.30;9.60;;;;;;;17.43;33.79;100541.38;106337;1258;70371;-80
2024/02/28 13:54:58;;;;;;;18.30;9.10;;;;;;;16.54;34.92;100540.26;106350;1260;72736;-80
2024/02/28 13:57:25;;;;;;;17.90;9.50;;;;;;;15.78;35.99;100531.59;106232;1257;61066;-78
2024/02/28 13:59:54;;;;;;;16.30;9.80;;;;;;;15.16;36.96;100529.27;106076;1256;60987;-77
2024/02/28 14:02:25;;;;;;;15.40;9.60;;;;;;;14.49;38.11;100530.86;107071;1262;74436;-77
2024/02/28 14:04:54;;;;;;;14.60;9.00;;;;;;;13.90;38.89;100528.05;106017;1258;71367;-80
2024/02/28 14:07:21;;;;;;;20.60;9.90;;;;;;;13.43;39.79;100526.27;105834;1260;74652;-79
2024/02/28 14:09:49;;;;;;;21.00;9.40;;;;;;;13.05;40.28;100532.56;105795;1257;60191;-82
2024/02/28 14:12:16;;;;;;;17.90;9.20;;;;;;;12.79;40.97;100534.82;105995;1257;62257;-79
2024/02/28 14:14:44;;;;;;;18.30;9.10;;;;;;;12.50;41.41;100535.04;106182;1263;73327;-84
2024/02/28 14:17:12;;;;;;;19.00;8.50;;;;;;;12.23;41.86;100532.70;106022;1257;69205;-81
2024/02/28 14:19:40;;;;;;;17.80;10.10;;;;;;;12.00;42.18;100536.21;106127;1260;71845;-81
2024/02/28 14:22:09;;;;;;;16.80;9.00;;;;;;;11.75;42.79;100534.95;108895;1262;59021;-80
2024/02/28 14:24:39;;;;;;;17.50;10.20;;;;;;;11.48;43.47;100530.05;109146;1257;61385;-82
2024/02/28 14:27:12;;;;;;;17.10;8.70;;;;;;;11.24;43.99;100528.19;106674;1257;73941;-80
2024/02/28 14:29:40;;;;;;;21.20;9.70;;;;;;;10.98;44.69;100528.95;106723;1263;71250;-81
2024/02/28 14:32:08;;;;;;;21.50;9.00;;;;;;;10.77;45.46;100535.38;106225;1257;72731;-80
2024/02/28 14:34:35;;;;;;;15.80;8.60;;;;;;;10.56;45.54;100535.62;106001;1263;62804;-81
2024/02/28 14:37:04;;;;;;;18.60;8.60;;;;;;;10.39;46.23;100527.65;106408;1260;59602;-80
2024/02/28 14:39:32;;;;;;;19.80;8.30;;;;;;;10.21;46.32;100525.38;107434;1257;75416;-79
2024/02/28 14:41:59;;;;;;;17.80;8.40;;;;;;;10.12;46.61;100525.45;107443;1257;72929;-78
2024/02/28 14:44:26;;;;;;;16.30;8.80;;;;;;;10.00;46.95;100528.98;106216;1256;72675;-78
2024/02/28 14:46:54;;;;;;;15.00;7.80;;;;;;;9.89;47.01;100529.83;105759;1257;60164;-78
2024/02/28 14:49:22;;;;;;;19.90;8.50;;;;;;;9.79;47.36;100532.02;105748;1256;60288;-79
2024/02/28 14:51:50;;;;;;;15.80;9.20;;;;;;;9.70;47.64;100532.73;105608;1256;75173;-77
2024/02/28 14:54:22;;;;;;;17.30;9.30;;;;;;;9.56;48.18;100523.79;105636;1258;71442;-78
2024/02/28 14:56:50;;;;;;;17.10;8.80;;;;;;;9.43;48.34;100522.30;105754;1260;72204;-76
2024/02/28 14:59:17;;;;;;;20.30;9.60;;;;;;;9.33;48.53;100524.10;105363;1258;62421;-79
2024/02/28 15:01:45;;;;;;;17.20;8.80;;;;;;;9.21;48.84;100525.66;105466;1256;59815;-79
2024/02/28 15:04:15;;;;;;;17.50;8.60;;;;;;;9.13;49.28;100527.73;105780;1260;73967;-78
2024/02/28 15:06:43;;;;;;;18.20;9.00;;;;;;;9.02;49.50;100531.63;106028;1257;71038;-79
2024/02/28 15:09:11;;;;;;;18.00;9.20;;;;;;;8.94;49.61;100529.27;105565;1257;75064;-79
2024/02/28 15:11:38;;;;;;;14.60;9.00;;;;;;;8.84;50.25;100532.30;105990;1254;60129;-78
2024/02/28 15:14:06;;;;;;;18.00;9.30;;;;;;;8.74;50.41;100520.45;105613;1255;60995;-79
2024/02/28 15:16:33;;;;;;;15.10;8.70;;;;;;;8.67;50.44;100522.13;106326;1254;72448;-78
2024/02/28 15:19:01;;;;;;;18.90;8.40;;;;;;;8.61;50.99;100521.57;109000;1253;74234;-80
2024/02/28 15:21:28;;;;;;;13.80;8.00;;;;;;;8.57;51.18;100527.25;108883;1254;71475;-78
2024/02/28 15:23:56;;;;;;;17.20;8.90;;;;;;;8.53;50.85;100531.98;107111;1253;61496;-78
2024/02/28 15:26:23;;;;;;;19.50;9.20;;;;;;;8.51;51.54;100533.25;106447;1257;59985;-80
2024/02/28 15:29:05;;;;;;;14.20;9.20;;;;;;;8.43;51.72;100530.89;106172;1254;72296;-79
2024/02/28 15:31:32;;;;;;;15.70;9.30;;;;;;;8.36;51.58;100528.30;106107;1253;70421;-80
2024/02/28 15:34:00;;;;;;;20.80;9.20;;;;;;;8.29;52.08;100530.12;105905;1257;71354;-79
2024/02/28 15:36:27;;;;;;;22.70;10.00;;;;;;;8.21;52.72;100528.08;106088;1254;59520;-75
2024/02/28 15:38:55;;;;;;;16.80;9.20;;;;;;;8.10;52.94;100526.16;106315;1254;62182;-77
2024/02/28 15:41:23;;;;;;;18.40;9.80;;;;;;;8.01;53.27;100525.17;105905;1258;72809;-78
2024/02/28 15:43:51;;;;;;;21.10;10.00;;;;;;;7.94;53.24;100526.31;106189;1252;71454;-80
2024/02/28 15:46:19;;;;;;;20.00;10.30;;;;;;;7.88;53.43;100531.21;105707;1254;73615;-79
2024/02/28 15:48:47;;;;;;;24.30;11.10;;;;;;;7.82;53.45;100526.29;105853;1259;60016;-78
2024/02/28 15:51:14;;;;;;;18.40;10.00;;;;;;;7.75;53.63;100525.27;105955;1259;60082;-80
2024/02/28 15:53:42;;;;;;;17.70;10.00;;;;;;;7.70;53.65;100528.35;106470;1254;72070;-78
2024/02/28 15:56:10;;;;;;;19.40;10.00;;;;;;;7.65;54.03;100526.11;107797;1253;68953;-79
2024/02/28 15:58:39;;;;;;;20.50;11.20;;;;;;;7.61;53.95;100526.61;107659;1257;73641;-80
2024/02/28 16:01:07;;;;;;;19.00;10.70;;;;;;;7.59;54.15;100531.77;106378;1254;59735;-80
2024/02/28 16:03:34;;;;;;;19.90;10.30;;;;;;;7.55;54.69;100533.67;106208;1254;59532;-80
2024/02/28 16:06:04;;;;;;;23.00;9.60;;;;;;;7.50;54.77;100526.34;106246;1257;75294;-80
2024/02/28 16:08:31;;;;;;;24.00;10.60;;;;;;;7.46;54.92;100530.37;106452;1253;68872;-80
2024/02/28 16:10:59;;;;;;;21.30;11.00;;;;;;;7.42;55.13;100536.53;106309;1258;71809;-81
2024/02/28 16:13:27;;;;;;;16.80;9.80;;;;;;;7.38;55.34;100531.54;106659;1253;61566;-79
2024/02/28 16:15:54;;;;;;;21.50;9.90;;;;;;;7.35;55.46;100533.05;108511;1253;61135;-76
2024/02/28 16:18:22;;;;;;;19.70;9.00;;;;;;;7.33;55.47;100538.52;108276;1259;71809;-77
2024/02/28 16:20:50;;;;;;;16.90;9.70;;;;;;;7.31;55.44;100534.61;106617;1254;69542;-79
2024/02/28 16:23:17;;;;;;;16.70;8.90;;;;;;;7.26;55.64;100530.73;106996;1254;71628;-79
2024/02/28 16:25:46;;;;;;;25.80;9.50;;;;;;;7.26;55.81;100534.44;106749;1257;60500;-80
2024/02/28 16:28:14;;;;;;;18.70;9.60;;;;;;;7.24;55.72;100538.73;106938;1253;59723;-78
2024/02/28 16:30:46;;;;;;;16.00;9.20;;;;;;;7.22;55.84;100535.02;106447;1259;73217;-79
2024/02/28 16:33:16;;;;;;;15.20;7.90;;;;;;;7.19;55.90;100534.52;106023;1259;70260;-79
2024/02/28 16:35:45;;;;;;;20.90;8.90;;;;;;;7.17;56.18;100538.59;105994;1254;73582;-78
2024/02/28 16:38:12;;;;;;;20.50;8.80;;;;;;;7.14;56.01;100542.14;105937;1254;59662;-79
2024/02/28 16:40:40;;;;;;;19.40;9.50;;;;;;;7.11;56.06;100537.17;106042;1254;59547;-77
2024/02/28 16:43:07;;;;;;;26.70;10.70;;;;;;;7.08;56.16;100543.72;106147;1257;75601;-81
2024/02/28 16:45:35;;;;;;;15.40;9.00;;;;;;;7.05;56.30;100544.66;106140;1254;69187;-80
2024/02/28 16:48:06;;;;;;;21.90;9.80;;;;;;;7.02;56.50;100533.27;106228;1257;74876;-80
2024/02/28 16:50:34;;;;;;;23.20;9.70;;;;;;;7.01;56.29;100543.94;106247;1254;60895;-81
2024/02/28 16:53:01;;;;;;;19.80;10.50;;;;;;;6.99;56.46;100540.20;106136;1254;60447;-81
2024/02/28 16:55:29;;;;;;;24.40;10.40;;;;;;;6.98;56.51;100541.59;106329;1254;73563;-79
2024/02/28 16:57:56;;;;;;;27.00;10.80;;;;;;;6.93;56.70;100538.75;105978;1257;72620;-76
2024/02/28 17:00:24;;;;;;;23.10;10.60;;;;;;;6.93;56.58;100538.83;106020;1254;74978;-76
2024/02/28 17:02:52;;;;;;;24.60;10.40;;;;;;;6.90;56.95;100540.59;106106;1254;60415;-77
2024/02/28 17:05:19;;;;;;;22.00;10.20;;;;;;;6.87;56.90;100541.86;106209;1257;62139;-82
2024/02/28 17:07:47;;;;;;;22.80;9.90;;;;;;;6.85;56.85;100544.34;105990;1256;76244;-77
2024/02/28 17:10:14;;;;;;;19.90;9.10;;;;;;;6.83;57.18;100539.95;107963;1253;72734;-78
2024/02/28 17:12:42;;;;;;;21.50;9.40;;;;;;;6.81;57.14;100545.73;109367;1252;73598;-77
2024/02/28 17:15:10;;;;;;;15.70;9.40;;;;;;;6.80;57.28;100544.40;108178;1254;60431;-83
2024/02/28 17:17:38;;;;;;;19.90;10.00;;;;;;;6.79;57.36;100546.81;107637;1258;60450;-80
2024/02/28 17:20:07;;;;;;;20.50;9.00;;;;;;;6.76;57.44;100540.70;106792;1254;72370;-79
2024/02/28 17:22:34;;;;;;;13.90;9.10;;;;;;;6.72;57.42;100539.91;106325;1254;72433;-79
2024/02/28 17:25:02;;;;;;;21.00;9.40;;;;;;;6.68;57.58;100540.81;106016;1256;73254;-78
2024/02/28 17:27:31;;;;;;;19.50;9.60;;;;;;;6.62;57.62;100534.91;106082;1257;60343;-79
2024/02/28 17:29:59;;;;;;;19.30;9.70;;;;;;;6.54;57.74;100532.80;105821;1254;60414;-78
2024/02/28 17:32:27;;;;;;;26.40;10.60;;;;;;;6.47;57.91;100535.73;106097;1253;74484;-81
2024/02/28 17:34:55;;;;;;;24.90;11.20;;;;;;;6.43;58.05;100534.89;106417;1254;72516;-80
2024/02/28 17:37:23;;;;;;;24.40;10.90;;;;;;;6.37;58.14;100533.96;106590;1257;72937;-84
2024/02/28 17:39:52;;;;;;;22.40;11.30;;;;;;;6.32;58.35;100537.86;106105;1253;60495;-77
2024/02/28 17:42:20;;;;;;;26.60;11.60;;;;;;;6.26;58.25;100539.73;106004;1253;60431;-79
2024/02/28 17:44:50;;;;;;;23.60;11.30;;;;;;;6.19;58.80;100539.60;105949;1259;74126;-77
2024/02/28 17:47:17;;;;;;;31.90;11.90;;;;;;;6.12;59.06;100543.45;105749;1253;70815;-77
2024/02/28 17:49:46;;;;;;;23.70;10.60;;;;;;;6.05;59.12;100545.75;106226;1254;72107;-76
2024/02/28 17:52:13;;;;;;;23.50;12.10;;;;;;;5.98;59.24;100541.39;106724;1257;60746;-76
2024/02/28 17:54:41;;;;;;;29.60;11.20;;;;;;;5.92;59.45;100543.40;106564;1254;60555;-78
2024/02/28 17:57:10;;;;;;;26.90;12.00;;;;;;;5.87;59.70;100543.20;106139;1256;76012;-77
2024/02/28 17:59:38;;;;;;;29.30;12.50;;;;;;;5.82;59.72;100539.42;106171;1254;71204;-79
2024/02/28 18:02:06;;;;;;;29.80;11.50;;;;;;;5.77;60.10;100546.19;105934;1254;72158;-78
2024/02/28 18:04:34;;;;;;;25.20;11.80;;;;;;;5.69;60.18;100541.77;106287;1254;60490;-78
2024/02/28 18:07:01;;;;;;;26.90;12.10;;;;;;;5.64;60.27;100540.21;109163;1253;58878;-80
2024/02/28 18:09:28;;;;;;;27.00;11.50;;;;;;;5.61;60.40;100536.64;108584;1252;72639;-78
2024/02/28 18:11:56;;;;;;;21.30;11.20;;;;;;;5.59;60.63;100543.41;105672;1254;70913;-77
2024/02/28 18:14:24;;;;;;;22.20;10.90;;;;;;;5.56;60.74;100536.09;106005;1254;72816;-79
2024/02/28 18:16:51;;;;;;;28.20;12.10;;;;;;;5.52;60.92;100543.27;105839;1252;60507;-78
2024/02/28 18:19:21;;;;;;;22.50;11.80;;;;;;;5.48;61.15;100544.30;105853;1254;62196;-76
2024/02/28 18:21:48;;;;;;;22.30;11.70;;;;;;;5.43;61.32;100547.13;105635;1253;72922;-79
2024/02/28 18:24:16;;;;;;;31.50;12.10;;;;;;;5.38;61.29;100552.07;106067;1257;69475;-78
2024/02/28 18:26:43;;;;;;;26.10;12.80;;;;;;;5.33;61.48;100550.80;107355;1254;72514;-79
2024/02/28 18:29:11;;;;;;;25.80;12.50;;;;;;;5.29;61.56;100547.11;107676;1257;60546;-79
2024/02/28 18:31:38;;;;;;;37.20;13.20;;;;;;;5.27;61.64;100544.64;107061;1254;60691;-80
2024/02/28 18:34:07;;;;;;;27.40;11.30;;;;;;;5.24;61.74;100546.11;107835;1254;72014;-78
2024/02/28 18:36:35;;;;;;;28.30;12.40;;;;;;;5.21;61.69;100545.41;107455;1257;69528;-77
2024/02/28 18:39:03;;;;;;;27.00;11.90;;;;;;;5.18;61.90;100544.55;107350;1254;71716;-76
2024/02/28 18:41:30;;;;;;;25.20;11.00;;;;;;;5.16;62.12;100549.66;106853;1257;60533;-78
2024/02/28 18:43:58;;;;;;;20.90;11.10;;;;;;;5.13;62.28;100545.46;106262;1254;60993;-79
2024/02/28 18:46:25;;;;;;;29.70;12.80;;;;;;;5.10;62.34;100545.65;106117;1254;72825;-80
2024/02/28 18:48:53;;;;;;;25.50;11.50;;;;;;;5.08;62.28;100550.92;105849;1254;72683;-79
2024/02/28 18:51:20;;;;;;;25.70;12.00;;;;;;;5.05;62.63;100545.00;106039;1254;74770;-79
2024/02/28 18:53:48;;;;;;;26.70;12.70;;;;;;;5.02;62.40;100548.54;105689;1257;60533;-79
2024/02/28 18:56:15;;;;;;;28.00;11.20;;;;;;;5.00;62.34;100545.23;105955;1255;60339;-78
2024/02/28 18:58:43;;;;;;;24.10;11.30;;;;;;;4.98;62.49;100545.48;105509;1254;74349;-78
2024/02/28 19:01:11;;;;;;;30.80;11.40;;;;;;;4.96;62.66;100543.95;107779;1254;71583;-78
2024/02/28 19:03:41;;;;;;;26.70;11.10;;;;;;;4.93;62.77;100543.75;109086;1253;71175;-78
2024/02/28 19:06:08;;;;;;;23.90;11.40;;;;;;;4.92;62.64;100544.68;106833;1257;60537;-80
2024/02/28 19:08:36;;;;;;;28.40;11.90;;;;;;;4.91;62.60;100546.50;105904;1254;60369;-77
2024/02/28 19:11:04;;;;;;;25.70;11.80;;;;;;;4.89;62.86;100549.70;105781;1253;72691;-77
2024/02/28 19:13:34;;;;;;;24.60;11.90;;;;;;;4.86;63.23;100548.85;105938;1255;71051;-78
2024/02/28 19:16:01;;;;;;;27.50;12.80;;;;;;;4.83;63.22;100553.63;105573;1254;70840;-77
2024/02/28 19:18:29;;;;;;;27.30;11.40;;;;;;;4.81;63.13;100556.41;105994;1254;60524;-77
2024/02/28 19:20:57;;;;;;;31.40;12.40;;;;;;;4.79;63.11;100556.38;105923;1254;60441;-78
2024/02/28 19:23:24;;;;;;;30.00;13.40;;;;;;;4.77;62.99;100549.85;105947;1254;74844;-77
2024/02/28 19:25:51;;;;;;;27.90;11.20;;;;;;;4.75;63.19;100547.52;106493;1260;71309;-77
2024/02/28 19:28:19;;;;;;;33.40;12.60;;;;;;;4.72;63.32;100544.56;106501;1259;72804;-75
2024/02/28 19:30:46;;;;;;;26.20;11.40;;;;;;;4.71;63.31;100544.87;106459;1254;60399;-80
2024/02/28 19:33:14;;;;;;;23.60;11.10;;;;;;;4.69;63.47;100546.70;106479;1254;60377;-79
2024/02/28 19:35:43;;;;;;;34.70;12.50;;;;;;;4.68;63.51;100548.75;106491;1254;75996;-80
2024/02/28 19:38:10;;;;;;;27.90;12.30;;;;;;;4.65;63.88;100545.23;106165;1254;72417;-79
2024/02/28 19:40:38;;;;;;;34.80;13.10;;;;;;;4.64;63.67;100542.70;106156;1254;73551;-79
2024/02/28 19:43:06;;;;;;;21.50;10.80;;;;;;;4.62;63.73;100539.84;105989;1254;60451;-81
2024/02/28 19:45:34;;;;;;;35.20;12.80;;;;;;;4.60;63.93;100542.30;106287;1253;60479;-79
2024/02/28 19:48:02;;;;;;;22.60;12.50;;;;;;;4.57;63.94;100542.50;106988;1253;71964;-80
2024/02/28 19:50:29;;;;;;;24.00;11.60;;;;;;;4.55;64.03;100544.22;106605;1253;70278;-79
2024/02/28 19:52:57;;;;;;;30.50;12.90;;;;;;;4.53;64.18;100543.84;105984;1254;73216;-79
2024/02/28 19:55:24;;;;;;;28.10;11.50;;;;;;;4.50;64.19;100540.52;107094;1254;60484;-80
2024/02/28 19:57:52;;;;;;;23.70;11.20;;;;;;;4.48;64.29;100536.98;109199;1253;61221;-79
2024/02/28 20:00:20;;;;;;;30.10;12.30;;;;;;;4.47;64.47;100541.82;107913;1253;74735;-80
2024/02/28 20:02:48;;;;;;;27.60;13.00;;;;;;;4.47;64.34;100535.67;106725;1254;68900;-80
2024/02/28 20:05:15;;;;;;;27.70;11.80;;;;;;;4.45;64.59;100532.63;106550;1254;74896;-81
2024/02/28 20:07:48;;;;;;;33.20;11.50;;;;;;;4.44;64.47;100538.66;106480;1256;59543;-80
2024/02/28 20:10:16;;;;;;;24.70;12.10;;;;;;;4.42;64.51;100536.88;106617;1254;60513;-81
2024/02/28 20:12:44;;;;;;;30.60;12.40;;;;;;;4.40;64.52;100536.52;106709;1254;74347;-80
2024/02/28 20:15:13;;;;;;;33.20;12.80;;;;;;;4.38;64.43;100537.72;106957;1254;72709;-79
2024/02/28 20:17:40;;;;;;;26.50;12.80;;;;;;;4.37;64.65;100532.02;107360;1253;71297;-81
2024/02/28 20:20:08;;;;;;;30.10;11.70;;;;;;;4.33;65.02;100534.53;107236;1254;60558;-80
2024/02/28 20:22:36;;;;;;;26.50;12.20;;;;;;;4.31;64.92;100536.77;107916;1253;60949;-81
2024/02/28 20:25:04;;;;;;;31.40;12.10;;;;;;;4.29;64.92;100531.52;108247;1253;74994;-80
2024/02/28 20:27:32;;;;;;;27.40;12.80;;;;;;;4.27;64.90;100533.74;108122;1253;70535;-81
2024/02/28 20:29:59;;;;;;;25.90;11.20;;;;;;;4.26;64.92;100534.33;107694;1254;71469;-81
2024/02/28 20:32:27;;;;;;;29.20;13.50;;;;;;;4.25;64.97;100536.14;108193;1254;58801;-80
2024/02/28 20:34:54;;;;;;;26.40;13.10;;;;;;;4.25;65.02;100533.90;107515;1253;60290;-77
2024/02/28 20:37:23;;;;;;;28.10;13.10;;;;;;;4.23;65.35;100533.66;106269;1254;74029;-78
2024/02/28 20:39:50;;;;;;;30.60;13.60;;;;;;;4.22;65.19;100526.59;106926;1257;68657;-76
2024/02/28 20:42:17;;;;;;;23.10;12.70;;;;;;;4.21;65.19;100529.30;106878;1254;71432;-77
2024/02/28 20:44:45;;;;;;;27.80;13.40;;;;;;;4.19;65.26;100531.17;106664;1254;60548;-76
2024/02/28 20:47:13;;;;;;;32.30;13.70;;;;;;;4.17;65.21;100526.91;106425;1254;60475;-77
2024/02/28 20:49:40;;;;;;;26.60;12.80;;;;;;;4.14;65.48;100533.20;107253;1253;72833;-77
2024/02/28 20:52:08;;;;;;;29.00;12.40;;;;;;;4.13;65.43;100532.08;108211;1252;69266;-75
2024/02/28 20:54:36;;;;;;;26.00;12.50;;;;;;;4.12;65.35;100536.68;107238;1259;71285;-76
2024/02/28 20:57:03;;;;;;;35.70;13.70;;;;;;;4.11;65.61;100536.96;106785;1253;60514;-78
2024/02/28 20:59:43;;;;;;;31.50;12.50;;;;;;;4.10;65.53;100537.55;107023;1254;60332;-77
2024/02/28 21:02:11;;;;;;;30.00;14.00;;;;;;;4.10;65.38;100535.27;107054;1254;72739;-77
2024/02/28 21:04:41;;;;;;;29.00;13.70;;;;;;;4.10;65.43;100540.20;106206;1257;72313;-76
2024/02/28 21:07:08;;;;;;;30.70;13.00;;;;;;;4.09;65.35;100536.36;106335;1253;72319;-76
2024/02/28 21:09:41;;;;;;;21.70;11.10;;;;;;;4.09;65.27;100533.64;106319;1257;61895;-75
2024/02/28 21:12:12;;;;;;;26.80;12.60;;;;;;;4.06;65.37;100537.85;106512;1254;62258;-77
2024/02/28 21:14:40;;;;;;;36.40;13.30;;;;;;;4.03;65.50;100538.77;106829;1254;74754;-77
2024/02/28 21:17:08;;;;;;;34.00;12.90;;;;;;;4.00;65.58;100539.15;106471;1254;69361;-77
2024/02/28 21:19:35;;;;;;;32.10;13.80;;;;;;;3.97;65.34;100543.54;106318;1254;72718;-77
2024/02/28 21:22:04;;;;;;;33.50;13.80;;;;;;;3.97;65.34;100539.39;106308;1254;60568;-77
2024/02/28 21:24:32;;;;;;;26.30;13.40;;;;;;;3.96;65.36;100539.80;106666;1254;60339;-76
2024/02/28 21:26:59;;;;;;;27.20;12.30;;;;;;;3.95;65.46;100546.14;106456;1257;73759;-77
2024/02/28 21:29:26;;;;;;;33.90;13.30;;;;;;;3.94;65.07;100541.63;106516;1254;70026;-76
2024/02/28 21:31:54;;;;;;;29.20;14.00;;;;;;;3.94;65.22;100542.54;106762;1254;72436;-75
2024/02/28 21:34:22;;;;;;;26.60;12.40;;;;;;;3.94;65.00;100543.08;106469;1254;60559;-76
2024/02/28 21:36:49;;;;;;;29.80;13.60;;;;;;;3.94;65.03;100547.94;106757;1253;60561;-77
2024/02/28 21:39:17;;;;;;;28.30;13.20;;;;;;;3.95;64.83;100546.65;106667;1257;72589;-77
2024/02/28 21:41:44;;;;;;;35.00;14.60;;;;;;;3.96;64.83;100554.16;107009;1253;70231;-76
2024/02/28 21:44:12;;;;;;;36.00;13.10;;;;;;;3.97;64.52;100556.36;108262;1257;71471;-76
2024/02/28 21:46:40;;;;;;;27.80;13.90;;;;;;;3.98;64.75;100556.61;108176;1253;60457;-77
2024/02/28 21:49:08;;;;;;;33.40;14.50;;;;;;;3.99;64.46;100560.21;108606;1252;59145;-76
2024/02/28 21:51:40;;;;;;;35.60;13.90;;;;;;;4.00;64.61;100564.19;107042;1258;72669;-77
2024/02/28 21:54:07;;;;;;;29.40;12.50;;;;;;;4.02;64.00;100559.70;106315;1254;70032;-77
2024/02/28 21:56:37;;;;;;;36.60;14.30;;;;;;;4.03;64.22;100557.52;106905;1256;71710;-77
2024/02/28 21:59:05;;;;;;;33.20;14.40;;;;;;;4.04;64.08;100560.95;107052;1254;60374;-78
2024/02/28 22:01:32;;;;;;;28.60;13.20;;;;;;;4.05;64.03;100567.86;106720;1254;59986;-76
2024/02/28 22:04:00;;;;;;;30.90;13.30;;;;;;;4.05;63.80;100571.76;106447;1254;72950;-75
2024/02/28 22:06:29;;;;;;;31.60;13.70;;;;;;;4.04;63.74;100570.55;106369;1257;69039;-74
2024/02/28 22:08:59;;;;;;;28.00;12.70;;;;;;;4.04;63.73;100570.95;106532;1254;72443;-76
2024/02/28 22:11:28;;;;;;;29.80;12.10;;;;;;;4.04;63.48;100574.77;106201;1259;60533;-75
2024/02/28 22:13:55;;;;;;;27.00;11.70;;;;;;;4.05;63.60;100581.39;106394;1253;60316;-73
2024/02/28 22:16:23;;;;;;;27.60;12.20;;;;;;;4.06;63.48;100583.45;106298;1254;72549;-76
2024/02/28 22:18:51;;;;;;;27.50;11.90;;;;;;;4.06;63.27;100584.84;106328;1258;70030;-77
2024/02/28 22:21:18;;;;;;;25.00;12.10;;;;;;;4.06;63.36;100585.38;106421;1254;72784;-76
2024/02/28 22:23:46;;;;;;;29.60;12.50;;;;;;;4.05;63.18;100581.71;106387;1258;60532;-76
2024/02/28 22:26:13;;;;;;;25.00;11.30;;;;;;;4.04;63.10;100585.11;106493;1254;60481;-75
2024/02/28 22:28:40;;;;;;;26.70;11.20;;;;;;;4.04;63.33;100582.30;106357;1256;74095;-75
2024/02/28 22:31:09;;;;;;;23.50;11.60;;;;;;;4.05;63.19;100582.83;106517;1254;68867;-77
2024/02/28 22:33:37;;;;;;;27.10;11.50;;;;;;;4.04;62.97;100576.35;107159;1254;71441;-76
2024/02/28 22:36:09;;;;;;;24.40;12.10;;;;;;;4.05;62.91;100581.39;108186;1254;59337;-75
2024/02/28 22:38:38;;;;;;;29.60;11.80;;;;;;;4.05;63.03;100581.70;107826;1253;59202;-74
2024/02/28 22:41:06;;;;;;;25.00;11.10;;;;;;;4.06;62.92;100580.64;107211;1257;73794;-74
2024/02/28 22:43:33;;;;;;;28.00;11.20;;;;;;;4.07;62.85;100576.53;106609;1254;68682;-75
2024/02/28 22:46:01;;;;;;;27.00;10.50;;;;;;;4.07;62.81;100577.20;106558;1254;71975;-74
2024/02/28 22:48:29;;;;;;;20.10;10.10;;;;;;;4.08;62.64;100570.13;106390;1254;59151;-74
2024/02/28 22:50:57;;;;;;;24.30;10.50;;;;;;;4.08;62.61;100579.25;106441;1253;60435;-75
2024/02/28 22:53:24;;;;;;;26.00;10.30;;;;;;;4.08;62.62;100572.78;106104;1252;73821;-74
2024/02/28 22:55:51;;;;;;;23.40;10.80;;;;;;;4.08;62.60;100572.61;106123;1255;69252;-75
2024/02/28 22:58:19;;;;;;;24.40;10.00;;;;;;;4.08;62.54;100568.39;106120;1256;71551;-75
2024/02/28 23:00:47;;;;;;;18.10;9.30;;;;;;;4.07;62.38;100572.81;106351;1253;60421;-72
2024/02/28 23:03:15;;;;;;;23.70;9.40;;;;;;;4.08;62.24;100574.20;106217;1254;60440;-78
2024/02/28 23:05:42;;;;;;;28.80;9.60;;;;;;;4.08;62.13;100567.17;105992;1253;72691;-75
2024/02/28 23:08:10;;;;;;;24.80;9.80;;;;;;;4.08;62.20;100571.71;106106;1254;70131;-76
2024/02/28 23:10:37;;;;;;;32.40;10.80;;;;;;;4.09;62.02;100568.33;106216;1254;71556;-77
2024/02/28 23:13:05;;;;;;;22.20;9.40;;;;;;;4.09;61.94;100572.70;106078;1254;60396;-75
2024/02/28 23:15:33;;;;;;;29.10;8.70;;;;;;;4.08;61.95;100566.45;106207;1254;60529;-75
2024/02/28 23:18:00;;;;;;;29.10;8.10;;;;;;;4.08;62.08;100569.08;106344;1254;72630;-74
2024/02/28 23:20:32;;;;;;;22.90;8.40;;;;;;;4.08;61.99;100565.77;106303;1253;69035;-74
2024/02/28 23:23:01;;;;;;;23.00;9.30;;;;;;;4.09;61.98;100564.31;106378;1256;72699;-76
2024/02/28 23:25:29;;;;;;;21.00;10.00;;;;;;;4.09;61.80;100556.73;107374;1254;60760;-76
2024/02/28 23:27:58;;;;;;;20.90;7.00;;;;;;;4.10;61.90;100562.81;108454;1253;60046;-74
2024/02/28 23:30:25;;;;;;;20.10;7.50;;;;;;;4.12;61.74;100561.29;107992;1254;72599;-76
2024/02/28 23:32:53;;;;;;;24.60;9.30;;;;;;;4.12;61.74;100566.15;107134;1254;69232;-74